Main page

Airports :

London-Gatwick, England

Gatwick Airport

latitude: 51-09N, longitude: 000-11W, elevation: 62 m

Current weather observation

The report was made 17 minutes ago, at 21:50 UTC
Wind 6 kt from the West/Southwest
Temperature 6°C
Humidity 93%
Pressure 1010 hPa
Visibility 10 km or more
Few clouds at a height of 4100 ft

METAR: EGKK 242150Z 24006KT 9999 FEW041 06/05 Q1010

Time: 22:07 (22:07 UTC)


The report was made 5 hours and 9 minutes ago, at 16:58 UTC
Forecast valid from 24 at 18 UTC to 25 at 24 UTC
Wind 9 kt from the West
Visibility 10 km or more
Scattered clouds at a height of 3000 ft
Probability 40% :
from 24 at 18 UTC to 25 at 06 UTC
Visibility: 7000 m
Broken clouds at a height of 1300 ft
rain showers
from 25 at 09 UTC to 25 at 12 UTC
Wind 10 kt from the North/Northwest
from 25 at 22 UTC to 25 at 24 UTC
Visibility: 6000 m
Broken clouds at a height of 900 ft

TAF: EGKK 241658Z 2418/2524 26009KT 9999 SCT030 PROB40 TEMPO 2418/2506 7000 SHRA BKN013 BECMG 2509/2512 33010KT TEMPO 2522/2524 6000 RA BKN009


Weather observations and forecasts of more than 4000 airports (METAR and TAF reports).

The available stations are represented by yellow and red dots on the map.

Hover mouse over dot to see the name of the station.

Then click to see weather observations and forecasts.

To change the map : click on the green buttons with a black cross to zoom in, on the green button with a dash to zoom out, or on the green arrows for adjacent maps.